createdAt,value
2016-08-31T00:00:42.326Z,0
2016-08-31T00:01:42.973Z,0
2016-08-31T10:26:46.211Z,50
2016-08-31T10:27:46.866Z,50
2016-08-31T10:28:47.499Z,50
2016-08-31T10:29:48.141Z,50
2016-08-31T10:30:48.842Z,50
2016-08-31T10:31:49.512Z,50
2016-08-31T10:32:50.243Z,70
2016-08-31T10:33:50.935Z,60
2016-08-31T10:34:51.590Z,60
2016-08-31T10:35:53.088Z,55
2016-08-31T10:36:53.744Z,55
2016-08-31T10:37:54.405Z,55
2016-08-31T10:38:55.091Z,55
2016-08-31T10:39:55.770Z,55
2016-08-31T10:40:56.453Z,55
2016-08-31T10:41:57.109Z,55
2016-08-31T10:42:57.769Z,50
2016-08-31T10:43:58.418Z,55
2016-08-31T10:44:59.094Z,55
2016-08-31T10:45:59.746Z,55
2016-08-31T10:47:00.420Z,55
2016-08-31T10:48:01.142Z,50
2016-08-31T10:49:01.759Z,50
2016-08-31T10:50:02.458Z,50
2016-08-31T10:51:03.108Z,50
2016-08-31T10:52:03.817Z,55
2016-08-31T10:53:04.450Z,50
2016-08-31T10:54:05.099Z,55
2016-08-31T10:55:05.745Z,55
2016-08-31T10:56:06.407Z,55
2016-08-31T10:57:07.086Z,55
2016-08-31T10:58:07.769Z,55
2016-08-31T10:59:08.543Z,55
2016-08-31T11:00:11.792Z,50
2016-08-31T11:01:12.451Z,50
2016-08-31T11:02:13.106Z,50
2016-08-31T11:03:13.802Z,50
2016-08-31T11:04:14.454Z,50
2016-08-31T11:05:15.077Z,50
2016-08-31T11:06:15.742Z,50
2016-08-31T11:07:16.426Z,50
2016-08-31T11:08:17.140Z,50
2016-08-31T11:09:17.818Z,50
2016-08-31T11:10:18.481Z,50
2016-08-31T11:11:19.139Z,50
2016-08-31T11:12:19.824Z,50
2016-08-31T11:13:20.505Z,50
2016-08-31T11:14:21.171Z,50
2016-08-31T11:15:21.922Z,50
2016-08-31T11:16:22.576Z,45
2016-08-31T11:17:23.259Z,45
2016-08-31T11:18:23.929Z,45
2016-08-31T11:19:24.592Z,45
2016-08-31T11:20:25.282Z,45
2016-08-31T11:21:25.980Z,45
2016-08-31T11:22:26.724Z,45
2016-08-31T11:23:27.451Z,45
2016-08-31T11:24:28.160Z,45
2016-08-31T11:25:28.855Z,45
2016-08-31T11:26:29.512Z,45
2016-08-31T11:27:30.215Z,45
2016-08-31T11:28:30.893Z,45
2016-08-31T11:29:31.575Z,45
2016-08-31T11:30:32.282Z,45
2016-08-31T11:31:32.961Z,45
2016-08-31T11:32:33.638Z,45
2016-08-31T11:33:34.341Z,45
2016-08-31T11:34:35.011Z,45
2016-08-31T11:35:35.674Z,40
2016-08-31T11:36:36.355Z,40
2016-08-31T11:37:37.012Z,40
2016-08-31T11:38:37.795Z,40
2016-08-31T11:39:38.459Z,40
2016-08-31T11:40:39.359Z,40
2016-08-31T11:41:40.101Z,40
2016-08-31T11:42:40.806Z,40
2016-08-31T11:43:41.480Z,40
2016-08-31T11:44:42.182Z,40
2016-08-31T11:45:43.119Z,40
2016-08-31T11:46:43.794Z,40
2016-08-31T11:47:44.475Z,40
2016-08-31T11:48:45.135Z,40
2016-08-31T11:49:45.808Z,40
2016-08-31T11:50:46.482Z,40
2016-08-31T11:51:47.206Z,40
2016-08-31T11:52:47.880Z,40
2016-08-31T11:53:48.562Z,40
2016-08-31T11:54:49.221Z,40
2016-08-31T11:55:49.910Z,45
2016-08-31T11:56:50.579Z,45
2016-08-31T11:57:51.282Z,45
2016-08-31T11:58:51.959Z,45
2016-08-31T11:59:52.646Z,45
2016-08-31T12:00:53.330Z,45
2016-08-31T12:01:54.028Z,45
2016-08-31T12:02:54.726Z,45
2016-08-31T12:03:55.434Z,45
2016-08-31T12:04:56.121Z,40
2016-08-31T12:05:56.817Z,40
2016-08-31T12:06:57.491Z,45
2016-08-31T12:07:58.191Z,40
2016-08-31T12:08:58.883Z,40
2016-08-31T12:09:59.574Z,40
2016-08-31T12:11:00.295Z,40
2016-08-31T12:12:00.981Z,40
2016-08-31T12:13:01.668Z,40
2016-08-31T12:14:02.353Z,40
2016-08-31T12:15:03.080Z,40
2016-08-31T12:16:03.737Z,40
2016-08-31T12:17:04.428Z,40
2016-08-31T12:18:05.157Z,40
2016-08-31T12:19:05.820Z,40
2016-08-31T12:20:06.520Z,40
2016-08-31T12:21:07.218Z,35
2016-08-31T12:22:07.938Z,35
2016-08-31T12:23:08.605Z,35
2016-08-31T12:24:09.245Z,35
2016-08-31T12:25:10.058Z,35
2016-08-31T12:26:10.740Z,35
2016-08-31T12:27:11.391Z,35
2016-08-31T12:28:12.070Z,35
2016-08-31T12:29:12.890Z,35
2016-08-31T12:30:14.064Z,35
2016-08-31T12:31:14.721Z,35
2016-08-31T12:32:15.374Z,35
2016-08-31T12:33:16.057Z,35
2016-08-31T12:34:16.753Z,35
2016-08-31T12:35:17.423Z,35
2016-08-31T12:36:18.314Z,35
2016-08-31T12:37:19.118Z,35
2016-08-31T12:38:20.474Z,35
2016-08-31T12:39:22.834Z,35
2016-08-31T12:40:23.560Z,35
2016-08-31T12:41:24.262Z,30
2016-08-31T12:42:24.945Z,35
2016-08-31T12:43:25.630Z,30
2016-08-31T12:44:26.359Z,30
2016-08-31T12:45:27.104Z,30
2016-08-31T12:46:30.801Z,30
2016-08-31T12:47:31.474Z,30
2016-08-31T12:48:32.153Z,30
2016-08-31T12:49:32.826Z,30
2016-08-31T12:50:33.464Z,30
2016-08-31T12:51:34.112Z,30
2016-08-31T12:52:34.806Z,30
2016-08-31T12:53:35.461Z,30
2016-08-31T12:54:36.163Z,30
2016-08-31T12:56:04.271Z,30
2016-08-31T12:57:06.012Z,30
2016-08-31T12:58:06.711Z,30
2016-08-31T12:59:07.497Z,30
2016-08-31T13:00:11.758Z,30
2016-08-31T13:01:12.418Z,30
2016-08-31T13:02:13.068Z,30
2016-08-31T13:03:13.706Z,30
2016-08-31T13:04:14.378Z,30
2016-08-31T13:05:15.154Z,30
2016-08-31T13:06:15.820Z,30
2016-08-31T13:07:16.481Z,30
2016-08-31T13:08:17.169Z,30
2016-08-31T13:09:17.829Z,30
2016-08-31T13:10:18.582Z,30
2016-08-31T13:11:19.241Z,30
2016-08-31T13:12:19.923Z,30
2016-08-31T13:13:20.675Z,30
2016-08-31T13:14:21.368Z,30
2016-08-31T13:15:22.326Z,30
2016-08-31T13:16:22.994Z,30
2016-08-31T13:17:23.735Z,30
2016-08-31T13:18:24.457Z,30
2016-08-31T13:19:25.176Z,30
2016-08-31T13:20:25.923Z,30
2016-08-31T13:21:26.675Z,30
2016-08-31T13:22:27.358Z,30
2016-08-31T13:23:28.035Z,30
2016-08-31T13:24:28.793Z,30
2016-08-31T13:25:29.484Z,30
2016-08-31T13:26:30.250Z,30
2016-08-31T13:27:30.922Z,30
2016-08-31T13:28:31.598Z,30
2016-08-31T13:29:32.319Z,30
2016-08-31T13:30:33.095Z,30
2016-08-31T13:31:33.760Z,30
2016-08-31T13:32:34.479Z,30
2016-08-31T13:33:35.186Z,30
2016-08-31T13:34:35.884Z,30
2016-08-31T13:35:36.608Z,30
2016-08-31T13:36:37.308Z,30
2016-08-31T13:37:37.994Z,30
2016-08-31T13:38:38.656Z,30
2016-08-31T13:39:39.339Z,30
2016-08-31T13:40:40.006Z,30
2016-08-31T13:41:40.638Z,30
2016-08-31T13:42:41.330Z,30
2016-08-31T13:43:41.990Z,30
2016-08-31T13:44:42.648Z,30
2016-08-31T13:45:43.376Z,30
2016-08-31T13:46:44.088Z,30
2016-08-31T13:47:44.809Z,30
2016-08-31T13:48:45.505Z,30
2016-08-31T13:49:46.174Z,30
2016-08-31T13:50:46.836Z,30
2016-08-31T13:51:49.138Z,30
2016-08-31T13:52:49.829Z,30
2016-08-31T13:53:50.491Z,30
2016-08-31T13:54:51.332Z,30
2016-08-31T13:55:52.016Z,30
2016-08-31T13:56:52.704Z,30
2016-08-31T13:57:53.397Z,30
2016-08-31T13:58:54.056Z,30
2016-08-31T13:59:54.753Z,30
2016-08-31T14:00:55.417Z,30
2016-08-31T14:01:56.065Z,30
2016-08-31T14:02:56.747Z,30
2016-08-31T14:03:57.413Z,30
2016-08-31T14:04:58.072Z,30
2016-08-31T14:05:58.771Z,30
2016-08-31T14:06:59.486Z,30
2016-08-31T14:08:00.163Z,30
2016-08-31T14:09:00.814Z,30
2016-08-31T14:10:01.510Z,30
2016-08-31T14:11:02.177Z,25
2016-08-31T14:12:02.840Z,25
2016-08-31T14:13:03.519Z,30
2016-08-31T14:14:04.194Z,30
2016-08-31T14:15:04.855Z,25
2016-08-31T14:16:05.532Z,25
2016-08-31T14:17:06.195Z,25
2016-08-31T14:18:06.892Z,25
2016-08-31T14:19:07.589Z,25
2016-08-31T14:20:08.259Z,25
2016-08-31T14:21:08.943Z,25
2016-08-31T14:22:09.602Z,25
2016-08-31T14:23:10.297Z,25
2016-08-31T14:24:10.964Z,25
2016-08-31T14:25:13.311Z,25
2016-08-31T14:26:14.037Z,25
2016-08-31T14:27:14.824Z,25
2016-08-31T14:28:15.489Z,25
2016-08-31T14:29:16.252Z,25
2016-08-31T14:30:17.030Z,25
2016-08-31T14:31:17.725Z,25
2016-08-31T14:32:18.419Z,25
2016-08-31T14:33:19.110Z,25
2016-08-31T14:34:19.839Z,25
2016-08-31T14:35:20.543Z,25
2016-08-31T14:36:21.379Z,25
2016-08-31T14:37:22.067Z,25
2016-08-31T14:38:22.842Z,25
2016-08-31T14:39:23.651Z,25
2016-08-31T14:40:24.353Z,25
2016-08-31T14:41:25.066Z,25
2016-08-31T14:42:25.762Z,25
2016-08-31T14:43:26.502Z,25
2016-08-31T14:44:27.191Z,25
2016-08-31T14:45:28.142Z,25
2016-08-31T14:46:28.881Z,25
2016-08-31T14:47:29.527Z,25
2016-08-31T14:48:30.199Z,25
2016-08-31T14:49:30.934Z,25
2016-08-31T14:50:31.737Z,25
2016-08-31T14:51:32.435Z,25
2016-08-31T14:52:33.121Z,25
2016-08-31T14:53:33.840Z,25
2016-08-31T14:54:34.535Z,25
2016-08-31T14:55:35.205Z,25
2016-08-31T14:56:35.909Z,25
2016-08-31T14:57:36.611Z,25
2016-08-31T14:58:37.336Z,25
2016-08-31T14:59:38.100Z,25
2016-08-31T15:00:38.841Z,25
2016-08-31T15:01:39.580Z,25
2016-08-31T15:02:40.269Z,25
2016-08-31T15:03:40.944Z,25
2016-08-31T15:04:41.640Z,25
2016-08-31T15:05:42.342Z,25
2016-08-31T15:06:43.014Z,25
2016-08-31T15:07:43.792Z,25
2016-08-31T15:08:44.501Z,25
2016-08-31T15:09:45.176Z,25
2016-08-31T15:10:45.847Z,25
2016-08-31T15:11:46.571Z,25
2016-08-31T15:12:47.264Z,25
2016-08-31T15:13:47.912Z,25
2016-08-31T15:14:48.602Z,25
2016-08-31T15:15:49.313Z,25
2016-08-31T15:16:49.997Z,25
2016-08-31T15:17:50.705Z,25
2016-08-31T15:18:51.404Z,25
2016-08-31T15:19:52.102Z,25
2016-08-31T15:20:52.786Z,25
2016-08-31T15:21:53.453Z,25
2016-08-31T15:22:54.117Z,25
2016-08-31T15:23:54.941Z,25
2016-08-31T15:24:55.620Z,25
2016-08-31T15:25:56.550Z,25
2016-08-31T15:26:57.134Z,25
2016-08-31T15:27:57.781Z,25
2016-08-31T15:28:58.483Z,25
2016-08-31T15:29:59.249Z,25
2016-08-31T15:30:59.988Z,25
2016-08-31T15:32:00.785Z,25
2016-08-31T15:33:01.463Z,25
2016-08-31T15:34:02.200Z,25
2016-08-31T15:35:02.963Z,25
2016-08-31T15:36:03.644Z,25
2016-08-31T15:37:04.304Z,25
2016-08-31T15:38:05.487Z,25
2016-08-31T15:39:06.124Z,25
2016-08-31T15:40:07.002Z,25
2016-08-31T15:41:07.679Z,25
2016-08-31T15:42:08.361Z,25
2016-08-31T15:43:09.202Z,25
2016-08-31T15:44:10.068Z,25
2016-08-31T15:45:11.196Z,25
2016-08-31T15:46:12.074Z,25
2016-08-31T15:47:12.786Z,25
2016-08-31T15:48:13.503Z,25
2016-08-31T15:49:14.217Z,25
2016-08-31T15:50:15.637Z,25
2016-08-31T15:51:16.343Z,25
2016-08-31T15:52:17.659Z,25
2016-08-31T15:53:18.372Z,25
2016-08-31T15:54:19.107Z,25
2016-08-31T15:55:20.207Z,25
2016-08-31T15:56:20.896Z,25
2016-08-31T15:57:22.104Z,25
2016-08-31T15:58:22.864Z,25
2016-08-31T15:59:23.551Z,25
2016-08-31T16:00:24.862Z,25
2016-08-31T16:01:25.616Z,25
2016-08-31T16:02:26.379Z,25
2016-08-31T16:03:27.312Z,25
2016-08-31T16:04:27.992Z,25
2016-08-31T16:05:28.714Z,25
2016-08-31T16:06:29.407Z,25
2016-08-31T16:07:30.094Z,25
2016-08-31T16:08:30.830Z,20
2016-08-31T16:09:31.532Z,25
2016-08-31T16:10:32.276Z,20
2016-08-31T16:11:33.003Z,20
2016-08-31T16:12:33.717Z,20
2016-08-31T16:13:34.420Z,20
2016-08-31T16:14:35.297Z,20
2016-08-31T16:15:36.344Z,20
2016-08-31T16:16:37.264Z,20
2016-08-31T16:17:38.144Z,20
2016-08-31T16:18:39.075Z,20
2016-08-31T16:19:39.785Z,20
2016-08-31T16:20:40.810Z,20
2016-08-31T16:21:41.550Z,20
2016-08-31T16:22:42.461Z,20
2016-08-31T16:23:43.151Z,20
2016-08-31T16:24:44.218Z,20
2016-08-31T16:25:45.419Z,20
2016-08-31T16:26:46.725Z,20
2016-08-31T16:27:47.582Z,20
2016-08-31T16:28:48.274Z,20
2016-08-31T16:29:48.961Z,20
2016-08-31T16:30:49.955Z,20
2016-08-31T16:31:50.699Z,20
2016-08-31T16:32:51.396Z,20
2016-08-31T16:33:52.298Z,20
2016-08-31T16:34:53.038Z,20
2016-08-31T16:35:53.785Z,20
2016-08-31T16:36:54.494Z,20
2016-08-31T16:37:55.344Z,20
2016-08-31T16:38:56.055Z,20
2016-08-31T16:39:57.312Z,20
2016-08-31T16:40:58.457Z,20
2016-08-31T16:41:59.432Z,20
2016-08-31T16:43:00.232Z,20
2016-08-31T16:44:01.014Z,20
2016-08-31T16:45:01.879Z,20
2016-08-31T16:46:02.767Z,20
2016-08-31T16:47:03.578Z,20
2016-08-31T16:48:04.376Z,20
2016-08-31T16:49:05.294Z,20
2016-08-31T16:50:05.999Z,20
2016-08-31T16:51:06.768Z,20
2016-08-31T16:52:07.535Z,20
2016-08-31T16:53:08.215Z,20
2016-08-31T16:54:08.908Z,20
2016-08-31T16:55:09.686Z,20
2016-08-31T16:56:10.558Z,20
2016-08-31T16:57:11.235Z,20
2016-08-31T16:58:12.129Z,20
2016-08-31T16:59:13.000Z,20
2016-08-31T17:00:13.672Z,20
2016-08-31T17:01:14.496Z,20
2016-08-31T17:02:15.353Z,20
2016-08-31T17:03:16.446Z,20
2016-08-31T17:04:17.448Z,20
2016-08-31T17:05:18.365Z,20
2016-08-31T17:06:19.233Z,20
2016-08-31T17:07:19.954Z,15
2016-08-31T17:08:20.648Z,15
2016-08-31T17:09:21.404Z,15
2016-08-31T17:10:22.524Z,15
2016-08-31T17:11:23.677Z,15
2016-08-31T17:12:24.924Z,15
2016-08-31T17:13:25.952Z,15
2016-08-31T17:14:26.770Z,10
2016-08-31T17:15:28.065Z,10
2016-08-31T17:16:28.740Z,10
2016-08-31T17:17:29.748Z,10
2016-08-31T17:18:30.966Z,10
2016-08-31T17:19:31.888Z,10
2016-08-31T17:20:32.683Z,10
2016-08-31T17:21:33.748Z,10
2016-08-31T17:22:34.547Z,10
2016-08-31T17:23:35.299Z,10
2016-08-31T17:24:36.008Z,10
2016-08-31T17:25:36.793Z,10
2016-08-31T17:26:37.607Z,10
2016-08-31T17:27:38.234Z,10
2016-08-31T17:28:39.015Z,10
2016-08-31T17:29:39.862Z,10
2016-08-31T17:30:40.574Z,10
2016-08-31T17:31:41.415Z,10
2016-08-31T17:32:42.541Z,10
2016-08-31T17:33:43.257Z,10
2016-08-31T17:34:44.440Z,10
2016-08-31T17:35:47.807Z,5
2016-08-31T17:36:48.526Z,10
2016-08-31T17:37:49.296Z,5
2016-08-31T17:38:49.997Z,5
2016-08-31T17:39:50.742Z,5
2016-08-31T17:40:52.505Z,5
2016-08-31T17:41:53.456Z,5
2016-08-31T17:42:54.950Z,5
2016-08-31T17:43:56.103Z,5
2016-08-31T17:44:57.364Z,5
2016-08-31T17:45:58.577Z,5
2016-08-31T17:46:59.600Z,5
2016-08-31T17:48:00.284Z,5
2016-08-31T17:49:01.407Z,5
2016-08-31T17:50:02.284Z,5
2016-08-31T17:51:03.167Z,5
2016-08-31T17:52:04.124Z,5
2016-08-31T17:53:04.960Z,5
2016-08-31T17:54:05.750Z,5
2016-08-31T17:55:06.809Z,0
2016-08-31T17:56:07.926Z,0
2016-08-31T17:57:08.742Z,0
2016-08-31T17:58:09.581Z,0
2016-08-31T17:59:20.967Z,0
2016-08-31T18:00:22.958Z,0
2016-08-31T18:01:23.825Z,0
2016-08-31T18:02:24.909Z,0
2016-08-31T18:03:25.867Z,0
2016-08-31T18:04:26.681Z,0
2016-08-31T18:05:27.535Z,0
2016-08-31T18:06:28.583Z,0
2016-08-31T18:07:29.317Z,0
2016-08-31T18:08:30.321Z,0
2016-08-31T18:09:31.008Z,0
2016-08-31T18:10:31.734Z,0
2016-08-31T18:11:32.454Z,0
2016-08-31T18:12:33.174Z,0
2016-08-31T18:13:33.965Z,0
2016-08-31T18:14:34.974Z,0
2016-08-31T18:15:36.016Z,0
2016-08-31T18:16:36.741Z,0
2016-08-31T18:17:37.583Z,0
2016-08-31T18:18:38.327Z,0
2016-08-31T18:19:39.204Z,0
2016-08-31T18:20:40.024Z,0
2016-08-31T18:21:40.984Z,0
2016-08-31T18:22:41.830Z,0
2016-08-31T18:23:43.094Z,0
2016-08-31T18:24:44.127Z,0
2016-08-31T18:25:44.954Z,0
2016-08-31T18:26:45.881Z,0
2016-08-31T18:27:46.975Z,0
2016-08-31T18:28:47.797Z,0
2016-08-31T18:29:48.673Z,0
2016-08-31T18:30:49.494Z,0
2016-08-31T18:31:50.362Z,0
2016-08-31T18:32:51.426Z,0
2016-08-31T18:33:52.178Z,0
2016-08-31T18:34:53.071Z,0
2016-08-31T18:35:53.885Z,0
2016-08-31T18:36:54.752Z,0
2016-08-31T18:37:55.481Z,0
2016-08-31T18:38:56.345Z,0
2016-08-31T18:39:57.123Z,0
2016-08-31T18:40:57.913Z,0
2016-08-31T18:41:58.636Z,0
2016-08-31T18:42:59.834Z,0
2016-08-31T18:44:00.735Z,0
2016-08-31T18:45:01.400Z,0
2016-08-31T18:46:03.135Z,0
2016-08-31T18:47:03.904Z,0
2016-08-31T18:48:04.862Z,0
2016-08-31T18:49:05.698Z,0
2016-08-31T18:50:06.605Z,0
2016-08-31T18:51:07.385Z,0
2016-08-31T18:52:08.246Z,0
2016-08-31T18:53:09.052Z,0
2016-08-31T18:54:09.779Z,0
2016-08-31T18:55:10.686Z,0
2016-08-31T18:56:11.793Z,0
2016-08-31T18:57:12.820Z,0
2016-08-31T18:58:13.797Z,0
2016-08-31T18:59:14.653Z,0
2016-08-31T19:00:15.451Z,0
2016-08-31T19:01:16.209Z,0
2016-08-31T19:02:17.411Z,0
2016-08-31T19:03:18.459Z,0
2016-08-31T19:04:19.292Z,0
2016-08-31T19:05:20.128Z,0
2016-08-31T19:06:20.902Z,0
2016-08-31T19:07:21.628Z,0
2016-08-31T19:08:22.392Z,0
2016-08-31T19:09:23.268Z,0
2016-08-31T19:10:24.096Z,0
2016-08-31T19:11:25.005Z,0
2016-08-31T19:12:25.869Z,0
2016-08-31T19:13:27.154Z,0
2016-08-31T19:14:28.246Z,0
2016-08-31T19:15:29.696Z,0
2016-08-31T19:16:31.758Z,0
2016-08-31T19:17:33.101Z,0
2016-08-31T19:18:34.116Z,0
2016-08-31T19:19:35.441Z,0
2016-08-31T19:20:36.508Z,0
2016-08-31T19:21:37.796Z,0
2016-08-31T19:22:39.015Z,0
2016-08-31T19:23:40.781Z,0
2016-08-31T19:24:42.573Z,0
2016-08-31T19:25:43.799Z,0
2016-08-31T19:26:45.106Z,0
2016-08-31T19:27:46.199Z,0
2016-08-31T19:28:47.546Z,0
2016-08-31T19:29:48.549Z,0
2016-08-31T19:30:49.591Z,0
2016-08-31T19:31:50.738Z,0
2016-08-31T19:32:51.858Z,0
2016-08-31T19:33:53.339Z,0
2016-08-31T19:34:54.197Z,0
2016-08-31T19:35:55.536Z,0
2016-08-31T19:36:57.173Z,0
2016-08-31T19:37:58.139Z,0
2016-08-31T19:38:59.248Z,0
2016-08-31T19:39:59.976Z,0
2016-08-31T19:41:01.336Z,0
2016-08-31T19:42:02.115Z,0
2016-08-31T19:43:02.979Z,0
2016-08-31T19:44:03.914Z,0
2016-08-31T19:45:04.962Z,0
2016-08-31T19:46:06.300Z,0
2016-08-31T19:47:07.608Z,0
2016-08-31T19:48:08.579Z,0
2016-08-31T19:49:09.817Z,0
2016-08-31T19:50:11.036Z,0
2016-08-31T19:51:12.352Z,0
2016-08-31T19:52:13.625Z,0
2016-08-31T19:53:14.663Z,0
2016-08-31T19:54:15.501Z,0
2016-08-31T19:55:16.347Z,0
2016-08-31T19:56:17.532Z,0
2016-08-31T19:57:19.752Z,0
2016-08-31T19:58:20.967Z,0
2016-08-31T19:59:22.480Z,0
2016-08-31T20:00:23.877Z,0
2016-08-31T20:01:25.284Z,0
2016-08-31T20:02:28.286Z,0
2016-08-31T20:03:29.129Z,0
2016-08-31T20:04:31.263Z,0
2016-08-31T20:05:32.113Z,0
2016-08-31T20:06:32.938Z,0
2016-08-31T20:07:33.793Z,0
2016-08-31T20:08:34.561Z,0
2016-08-31T20:09:35.318Z,0
2016-08-31T20:10:36.051Z,0
2016-08-31T20:11:36.760Z,0
2016-08-31T20:12:37.561Z,0
2016-08-31T20:13:38.326Z,0
2016-08-31T20:14:39.155Z,0
2016-08-31T20:15:39.989Z,0
2016-08-31T20:16:41.073Z,0
2016-08-31T20:17:42.095Z,0
2016-08-31T20:18:42.671Z,0
2016-08-31T20:19:43.392Z,0
2016-08-31T20:20:44.458Z,0
2016-08-31T20:21:45.541Z,0
2016-08-31T20:22:46.226Z,0
2016-08-31T20:23:46.977Z,0
2016-08-31T20:24:47.773Z,0
2016-08-31T20:25:48.591Z,0
2016-08-31T20:26:49.324Z,0
2016-08-31T20:27:50.095Z,0
2016-08-31T20:28:50.894Z,0
2016-08-31T20:29:51.571Z,0
2016-08-31T20:30:52.318Z,0
2016-08-31T20:31:53.193Z,0
2016-08-31T20:32:53.978Z,0
2016-08-31T20:33:54.836Z,0
2016-08-31T20:34:55.658Z,0
2016-08-31T20:35:56.419Z,0
2016-08-31T20:36:57.222Z,0
2016-08-31T20:37:57.943Z,0
2016-08-31T20:38:58.707Z,0
2016-08-31T20:39:59.448Z,0
2016-08-31T20:41:00.178Z,0
2016-08-31T20:42:01.017Z,0
2016-08-31T20:43:01.768Z,0
2016-08-31T20:44:02.543Z,0
2016-08-31T20:45:03.321Z,0
2016-08-31T20:46:04.052Z,0
2016-08-31T20:47:04.776Z,0
2016-08-31T20:48:05.486Z,0
2016-08-31T20:49:06.221Z,0
2016-08-31T20:50:07.315Z,0
2016-08-31T20:51:08.371Z,0
2016-08-31T20:52:09.172Z,0
2016-08-31T20:53:09.965Z,0
2016-08-31T20:54:11.086Z,0
2016-08-31T20:55:12.163Z,0
2016-08-31T20:56:12.830Z,0
2016-08-31T20:57:13.652Z,0
2016-08-31T20:58:14.484Z,0
2016-08-31T20:59:15.266Z,0
2016-08-31T21:00:16.050Z,0
2016-08-31T21:01:16.860Z,0
2016-08-31T21:02:18.127Z,0
2016-08-31T21:03:18.909Z,0
2016-08-31T21:04:19.948Z,0
2016-08-31T21:05:20.834Z,0
2016-08-31T21:06:21.567Z,0
2016-08-31T21:07:22.373Z,0
2016-08-31T21:08:23.087Z,0
2016-08-31T21:09:23.884Z,0
2016-08-31T21:10:24.641Z,0
2016-08-31T21:11:25.373Z,0
2016-08-31T21:12:26.066Z,0
2016-08-31T21:13:26.758Z,0
2016-08-31T21:14:27.468Z,0
2016-08-31T21:15:28.539Z,0
2016-08-31T21:16:29.220Z,0
2016-08-31T21:17:29.883Z,0
2016-08-31T21:18:30.604Z,0
2016-08-31T21:19:31.349Z,0
2016-08-31T21:20:32.239Z,0
2016-08-31T21:21:32.915Z,0
2016-08-31T21:22:33.628Z,0
2016-08-31T21:23:34.318Z,0
2016-08-31T21:24:35.075Z,0
2016-08-31T21:25:35.798Z,0
2016-08-31T21:26:36.688Z,0
2016-08-31T21:27:37.408Z,0
2016-08-31T21:28:38.150Z,0
2016-08-31T21:29:38.852Z,0
2016-08-31T21:30:39.861Z,0
2016-08-31T21:31:40.574Z,0
2016-08-31T21:32:41.275Z,0
2016-08-31T21:33:42.002Z,0
2016-08-31T21:34:42.733Z,0
2016-08-31T21:35:43.550Z,0
2016-08-31T21:36:44.221Z,0
2016-08-31T21:37:44.918Z,0
2016-08-31T21:38:45.651Z,0
2016-08-31T21:39:46.382Z,0
2016-08-31T21:40:47.048Z,0
2016-08-31T21:41:47.978Z,0
2016-08-31T21:42:48.702Z,0
2016-08-31T21:43:49.406Z,0
2016-08-31T21:44:50.091Z,0
2016-08-31T21:45:50.766Z,0
2016-08-31T21:46:51.442Z,0
2016-08-31T21:47:52.158Z,0
2016-08-31T21:48:52.904Z,0
2016-08-31T21:49:53.630Z,0
2016-08-31T21:50:54.330Z,0
2016-08-31T21:51:55.033Z,0
2016-08-31T21:52:55.722Z,0
2016-08-31T21:53:56.409Z,0
2016-08-31T21:54:57.087Z,0
2016-08-31T21:55:57.795Z,0
2016-08-31T21:56:58.528Z,0
2016-08-31T21:57:59.246Z,0
2016-08-31T21:58:59.958Z,0
2016-08-31T22:00:00.659Z,0
2016-08-31T22:01:01.392Z,0
2016-08-31T22:02:02.105Z,0
2016-08-31T22:03:02.837Z,0
2016-08-31T22:04:03.550Z,0
2016-08-31T22:05:04.307Z,0
2016-08-31T22:06:04.995Z,0
2016-08-31T22:07:05.749Z,0
2016-08-31T22:08:06.447Z,0
2016-08-31T22:09:07.131Z,0
2016-08-31T22:10:07.839Z,0
2016-08-31T22:11:08.552Z,0
2016-08-31T22:12:09.242Z,0
2016-08-31T22:13:09.939Z,0
2016-08-31T22:14:10.633Z,0
2016-08-31T22:15:11.344Z,0
2016-08-31T22:16:12.062Z,0
2016-08-31T22:17:12.787Z,0
2016-08-31T22:18:13.522Z,0
2016-08-31T22:19:14.233Z,0
2016-08-31T22:20:14.923Z,0
2016-08-31T22:21:15.643Z,0
2016-08-31T22:22:16.314Z,0
2016-08-31T22:23:17.019Z,0
2016-08-31T22:24:17.669Z,0
2016-08-31T22:25:18.360Z,0
2016-08-31T22:26:19.038Z,0
2016-08-31T22:27:19.722Z,0
2016-08-31T22:28:20.439Z,0
2016-08-31T22:29:21.143Z,0
2016-08-31T22:30:21.993Z,0
2016-08-31T22:31:22.678Z,0
2016-08-31T22:32:23.406Z,0
2016-08-31T22:33:24.085Z,0
2016-08-31T22:34:24.793Z,0
2016-08-31T22:35:25.521Z,0
2016-08-31T22:36:26.219Z,0
2016-08-31T22:37:26.903Z,0
2016-08-31T22:38:27.598Z,0
2016-08-31T22:39:28.288Z,0
2016-08-31T22:40:28.965Z,0
2016-08-31T22:41:29.669Z,0
2016-08-31T22:42:30.366Z,0
2016-08-31T22:43:31.074Z,0
2016-08-31T22:44:31.784Z,0
2016-08-31T22:45:32.456Z,0
2016-08-31T22:46:33.137Z,0
2016-08-31T22:47:33.820Z,0
2016-08-31T22:48:34.517Z,0
2016-08-31T22:49:35.197Z,0
2016-08-31T22:50:35.893Z,0
2016-08-31T22:51:36.580Z,0
2016-08-31T22:52:37.273Z,0
2016-08-31T22:53:38.038Z,0
2016-08-31T22:54:38.695Z,0
2016-08-31T22:55:39.398Z,0
2016-08-31T22:56:40.086Z,0
2016-08-31T22:57:40.755Z,0
2016-08-31T22:58:41.457Z,0
2016-08-31T22:59:42.118Z,0
2016-08-31T23:00:42.801Z,0
2016-08-31T23:01:43.466Z,0
2016-08-31T23:02:44.132Z,0
2016-08-31T23:03:44.805Z,0
2016-08-31T23:04:45.478Z,0
2016-08-31T23:05:46.152Z,0
2016-08-31T23:06:46.845Z,0
2016-08-31T23:07:47.561Z,0
2016-08-31T23:08:48.305Z,0
2016-08-31T23:09:48.977Z,0
2016-08-31T23:10:49.668Z,0
2016-08-31T23:11:50.341Z,0
2016-08-31T23:12:51.055Z,0
2016-08-31T23:13:51.728Z,0
2016-08-31T23:14:52.410Z,0
2016-08-31T23:15:53.186Z,0
2016-08-31T23:16:53.880Z,0
2016-08-31T23:17:54.585Z,0
2016-08-31T23:18:55.313Z,0
2016-08-31T23:19:56.019Z,0
2016-08-31T23:20:56.700Z,0
2016-08-31T23:21:57.376Z,0
2016-08-31T23:22:58.087Z,0
2016-08-31T23:23:58.715Z,0
2016-08-31T23:24:59.400Z,0
2016-08-31T23:26:00.104Z,0
2016-08-31T23:27:00.782Z,0
2016-08-31T23:28:01.460Z,0
2016-08-31T23:29:02.144Z,0
2016-08-31T23:30:02.847Z,0
2016-08-31T23:31:03.530Z,0
2016-08-31T23:32:04.219Z,0
2016-08-31T23:33:04.941Z,0
2016-08-31T23:34:05.589Z,0
2016-08-31T23:35:06.252Z,0
2016-08-31T23:36:06.926Z,0
2016-08-31T23:37:07.611Z,0
2016-08-31T23:38:08.295Z,0
2016-08-31T23:39:09.020Z,0
2016-08-31T23:40:09.773Z,0
2016-08-31T23:41:10.456Z,0
2016-08-31T23:42:11.141Z,0
2016-08-31T23:43:11.850Z,0
2016-08-31T23:44:12.520Z,0
2016-08-31T23:45:13.253Z,0
2016-08-31T23:46:13.963Z,0
2016-08-31T23:47:14.633Z,0
2016-08-31T23:48:15.301Z,0
2016-08-31T23:49:15.986Z,0
2016-08-31T23:50:16.670Z,0
2016-08-31T23:51:17.384Z,0
2016-08-31T23:52:18.067Z,0
2016-08-31T23:53:18.788Z,0
2016-08-31T23:54:19.457Z,0
2016-08-31T23:55:20.169Z,0
2016-08-31T23:56:20.845Z,0
2016-08-31T23:57:21.572Z,0
2016-08-31T23:58:22.284Z,0
2016-08-31T23:59:22.978Z,0
